sensor_id;sensor_type;location;lat;lon;timestamp;temperature;humidity
29281;DHT22;25048;49.590;11.026;2022-09-09T00:04:31;11.70;99.90
29281;DHT22;25048;49.590;11.026;2022-09-09T00:07:32;11.70;99.90
29281;DHT22;25048;49.590;11.026;2022-09-09T00:10:06;11.80;99.90
29281;DHT22;25048;49.590;11.026;2022-09-09T00:15:21;11.90;99.90
29281;DHT22;25048;49.590;11.026;2022-09-09T00:17:53;11.90;99.90
29281;DHT22;25048;49.590;11.026;2022-09-09T00:20:33;11.80;99.90
29281;DHT22;25048;49.590;11.026;2022-09-09T00:25:57;11.80;99.90
29281;DHT22;25048;49.590;11.026;2022-09-09T00:28:24;11.70;99.90
29281;DHT22;25048;49.590;11.026;2022-09-09T00:30:53;11.70;99.90
29281;DHT22;25048;49.590;11.026;2022-09-09T00:33:23;11.60;99.90
29281;DHT22;25048;49.590;11.026;2022-09-09T00:35:57;11.60;99.90
29281;DHT22;25048;49.590;11.026;2022-09-09T00:38:31;11.50;99.90
29281;DHT22;25048;49.590;11.026;2022-09-09T00:41:18;11.50;99.90
29281;DHT22;25048;49.590;11.026;2022-09-09T00:43:47;11.50;99.90
29281;DHT22;25048;49.590;11.026;2022-09-09T00:49:18;11.40;99.90
29281;DHT22;25048;49.590;11.026;2022-09-09T00:57:30;11.40;99.90
29281;DHT22;25048;49.590;11.026;2022-09-09T01:00:20;11.30;99.90
29281;DHT22;25048;49.590;11.026;2022-09-09T01:11:10;11.20;99.90
29281;DHT22;25048;49.590;11.026;2022-09-09T01:13:39;11.20;99.90
29281;DHT22;25048;49.590;11.026;2022-09-09T01:16:10;11.10;99.90
29281;DHT22;25048;49.590;11.026;2022-09-09T01:18:46;11.10;99.90
29281;DHT22;25048;49.590;11.026;2022-09-09T01:26:41;11.20;99.90
29281;DHT22;25048;49.590;11.026;2022-09-09T01:29:17;11.20;99.90
29281;DHT22;25048;49.590;11.026;2022-09-09T01:32:02;11.30;99.90
29281;DHT22;25048;49.590;11.026;2022-09-09T01:34:36;11.30;99.90
29281;DHT22;25048;49.590;11.026;2022-09-09T01:37:05;11.30;99.90
29281;DHT22;25048;49.590;11.026;2022-09-09T01:39:35;11.30;99.90
29281;DHT22;25048;49.590;11.026;2022-09-09T01:42:06;11.30;99.90
29281;DHT22;25048;49.590;11.026;2022-09-09T01:44:34;11.30;99.90
29281;DHT22;25048;49.590;11.026;2022-09-09T01:47:03;11.40;99.90
29281;DHT22;25048;49.590;11.026;2022-09-09T01:49:31;11.40;99.90
29281;DHT22;25048;49.590;11.026;2022-09-09T01:51:59;11.30;99.90
29281;DHT22;25048;49.590;11.026;2022-09-09T01:54:29;11.30;99.90
29281;DHT22;25048;49.590;11.026;2022-09-09T01:57:14;11.40;99.90
29281;DHT22;25048;49.590;11.026;2022-09-09T02:00:03;11.30;99.90
29281;DHT22;25048;49.590;11.026;2022-09-09T02:03:08;11.40;99.90
29281;DHT22;25048;49.590;11.026;2022-09-09T02:05:49;11.30;99.90
29281;DHT22;25048;49.590;11.026;2022-09-09T02:08:52;11.30;99.90
29281;DHT22;25048;49.590;11.026;2022-09-09T02:13:47;11.30;99.90
29281;DHT22;25048;49.590;11.026;2022-09-09T02:19:01;11.20;99.90
29281;DHT22;25048;49.590;11.026;2022-09-09T02:21:29;11.20;99.90
29281;DHT22;25048;49.590;11.026;2022-09-09T02:23:59;11.30;99.90
29281;DHT22;25048;49.590;11.026;2022-09-09T02:26:31;11.30;99.90
29281;DHT22;25048;49.590;11.026;2022-09-09T02:29:02;11.30;99.90
29281;DHT22;25048;49.590;11.026;2022-09-09T02:31:30;11.40;99.90
29281;DHT22;25048;49.590;11.026;2022-09-09T02:34:02;11.40;99.90
29281;DHT22;25048;49.590;11.026;2022-09-09T02:36:32;11.40;99.90
29281;DHT22;25048;49.590;11.026;2022-09-09T02:39:01;11.50;99.90
29281;DHT22;25048;49.590;11.026;2022-09-09T02:41:33;11.40;99.90
29281;DHT22;25048;49.590;11.026;2022-09-09T02:44:01;11.40;99.90
29281;DHT22;25048;49.590;11.026;2022-09-09T02:46:36;11.40;99.90
29281;DHT22;25048;49.590;11.026;2022-09-09T02:49:24;11.40;99.90
29281;DHT22;25048;49.590;11.026;2022-09-09T02:51:53;11.40;99.90
29281;DHT22;25048;49.590;11.026;2022-09-09T02:54:31;11.40;99.90
29281;DHT22;25048;49.590;11.026;2022-09-09T02:57:05;11.40;99.90
29281;DHT22;25048;49.590;11.026;2022-09-09T02:59:33;11.50;99.90
29281;DHT22;25048;49.590;11.026;2022-09-09T03:02:01;11.60;99.90
29281;DHT22;25048;49.590;11.026;2022-09-09T03:04:29;11.60;99.90
29281;DHT22;25048;49.590;11.026;2022-09-09T03:06:58;11.70;99.90
29281;DHT22;25048;49.590;11.026;2022-09-09T03:09:26;11.70;99.90
29281;DHT22;25048;49.590;11.026;2022-09-09T03:11:53;11.70;99.90
29281;DHT22;25048;49.590;11.026;2022-09-09T03:14:22;11.60;99.90
29281;DHT22;25048;49.590;11.026;2022-09-09T03:16:52;11.60;99.90
29281;DHT22;25048;49.590;11.026;2022-09-09T03:19:21;11.60;99.90
29281;DHT22;25048;49.590;11.026;2022-09-09T03:21:48;11.50;99.90
29281;DHT22;25048;49.590;11.026;2022-09-09T03:24:16;11.50;99.90
29281;DHT22;25048;49.590;11.026;2022-09-09T03:26:43;11.50;99.90
29281;DHT22;25048;49.590;11.026;2022-09-09T03:29:12;11.50;99.90
29281;DHT22;25048;49.590;11.026;2022-09-09T03:31:39;11.50;99.90
29281;DHT22;25048;49.590;11.026;2022-09-09T03:34:07;11.50;99.90
29281;DHT22;25048;49.590;11.026;2022-09-09T03:36:35;11.50;99.90
29281;DHT22;25048;49.590;11.026;2022-09-09T03:39:03;11.50;99.90
29281;DHT22;25048;49.590;11.026;2022-09-09T03:41:31;11.50;99.90
29281;DHT22;25048;49.590;11.026;2022-09-09T03:43:59;11.40;99.90
29281;DHT22;25048;49.590;11.026;2022-09-09T03:46:26;11.50;99.90
29281;DHT22;25048;49.590;11.026;2022-09-09T03:48:54;11.50;99.90
29281;DHT22;25048;49.590;11.026;2022-09-09T03:51:21;11.50;99.90
29281;DHT22;25048;49.590;11.026;2022-09-09T03:53:49;11.60;99.90
29281;DHT22;25048;49.590;11.026;2022-09-09T03:56:16;11.60;99.90
29281;DHT22;25048;49.590;11.026;2022-09-09T03:58:44;11.60;99.90
29281;DHT22;25048;49.590;11.026;2022-09-09T04:01:13;11.60;99.90
29281;DHT22;25048;49.590;11.026;2022-09-09T04:03:41;11.60;99.90
29281;DHT22;25048;49.590;11.026;2022-09-09T04:06:09;11.60;99.90
29281;DHT22;25048;49.590;11.026;2022-09-09T04:08:38;11.60;99.90
29281;DHT22;25048;49.590;11.026;2022-09-09T04:11:06;11.60;99.90
29281;DHT22;25048;49.590;11.026;2022-09-09T04:13:35;11.60;99.90
29281;DHT22;25048;49.590;11.026;2022-09-09T04:16:04;11.60;99.90
29281;DHT22;25048;49.590;11.026;2022-09-09T04:18:32;11.70;99.90
29281;DHT22;25048;49.590;11.026;2022-09-09T04:21:00;11.70;99.90
29281;DHT22;25048;49.590;11.026;2022-09-09T04:23:28;11.70;99.90
29281;DHT22;25048;49.590;11.026;2022-09-09T04:25:57;11.80;99.90
29281;DHT22;25048;49.590;11.026;2022-09-09T04:28:28;11.90;99.90
29281;DHT22;25048;49.590;11.026;2022-09-09T04:30:56;12.00;99.90
29281;DHT22;25048;49.590;11.026;2022-09-09T04:33:24;12.10;99.90
29281;DHT22;25048;49.590;11.026;2022-09-09T04:35:54;12.10;99.90
29281;DHT22;25048;49.590;11.026;2022-09-09T04:38:22;12.20;99.90
29281;DHT22;25048;49.590;11.026;2022-09-09T04:40:50;12.20;99.90
29281;DHT22;25048;49.590;11.026;2022-09-09T04:43:20;12.30;99.90
29281;DHT22;25048;49.590;11.026;2022-09-09T04:45:50;12.30;99.90
29281;DHT22;25048;49.590;11.026;2022-09-09T04:48:20;12.30;99.90
29281;DHT22;25048;49.590;11.026;2022-09-09T04:50:58;12.40;99.90
29281;DHT22;25048;49.590;11.026;2022-09-09T04:53:26;12.40;99.90
29281;DHT22;25048;49.590;11.026;2022-09-09T04:56:02;12.40;99.90
29281;DHT22;25048;49.590;11.026;2022-09-09T04:58:31;12.50;99.90
29281;DHT22;25048;49.590;11.026;2022-09-09T05:01:06;12.50;99.90
29281;DHT22;25048;49.590;11.026;2022-09-09T05:03:34;12.60;99.90
29281;DHT22;25048;49.590;11.026;2022-09-09T05:06:06;12.60;99.90
29281;DHT22;25048;49.590;11.026;2022-09-09T05:08:38;12.60;99.90
29281;DHT22;25048;49.590;11.026;2022-09-09T05:11:23;12.60;99.90
29281;DHT22;25048;49.590;11.026;2022-09-09T05:13:52;12.70;99.90
29281;DHT22;25048;49.590;11.026;2022-09-09T05:16:20;12.70;99.90
29281;DHT22;25048;49.590;11.026;2022-09-09T05:18:49;12.70;99.90
29281;DHT22;25048;49.590;11.026;2022-09-09T05:21:20;12.80;99.90
29281;DHT22;25048;49.590;11.026;2022-09-09T05:23:48;12.80;99.90
29281;DHT22;25048;49.590;11.026;2022-09-09T05:26:19;12.80;99.90
29281;DHT22;25048;49.590;11.026;2022-09-09T05:28:47;12.90;99.90
29281;DHT22;25048;49.590;11.026;2022-09-09T05:31:16;12.90;99.90
29281;DHT22;25048;49.590;11.026;2022-09-09T05:33:45;12.90;99.90
29281;DHT22;25048;49.590;11.026;2022-09-09T05:36:14;13.00;99.90
29281;DHT22;25048;49.590;11.026;2022-09-09T05:38:44;13.00;99.90
29281;DHT22;25048;49.590;11.026;2022-09-09T05:41:13;13.10;99.90
29281;DHT22;25048;49.590;11.026;2022-09-09T05:43:43;13.10;99.90
29281;DHT22;25048;49.590;11.026;2022-09-09T05:46:14;13.10;99.90
29281;DHT22;25048;49.590;11.026;2022-09-09T05:48:44;13.20;99.90
29281;DHT22;25048;49.590;11.026;2022-09-09T05:51:19;13.30;99.90
29281;DHT22;25048;49.590;11.026;2022-09-09T05:53:46;13.30;99.90
29281;DHT22;25048;49.590;11.026;2022-09-09T05:56:21;13.40;99.90
29281;DHT22;25048;49.590;11.026;2022-09-09T05:58:50;13.50;99.90
29281;DHT22;25048;49.590;11.026;2022-09-09T06:03:51;13.60;99.90
29281;DHT22;25048;49.590;11.026;2022-09-09T06:06:22;13.70;99.90
29281;DHT22;25048;49.590;11.026;2022-09-09T06:08:52;13.70;99.90
29281;DHT22;25048;49.590;11.026;2022-09-09T06:11:22;13.80;99.90
29281;DHT22;25048;49.590;11.026;2022-09-09T06:13:50;13.90;99.90
29281;DHT22;25048;49.590;11.026;2022-09-09T06:16:21;14.00;99.90
29281;DHT22;25048;49.590;11.026;2022-09-09T06:18:53;14.00;99.90
29281;DHT22;25048;49.590;11.026;2022-09-09T06:21:28;14.10;99.90
29281;DHT22;25048;49.590;11.026;2022-09-09T06:23:57;14.20;99.90
29281;DHT22;25048;49.590;11.026;2022-09-09T06:26:35;14.20;99.90
29281;DHT22;25048;49.590;11.026;2022-09-09T06:29:03;14.30;99.90
29281;DHT22;25048;49.590;11.026;2022-09-09T06:31:33;14.40;99.90
29281;DHT22;25048;49.590;11.026;2022-09-09T06:34:01;14.50;99.90
29281;DHT22;25048;49.590;11.026;2022-09-09T06:36:31;14.70;99.90
29281;DHT22;25048;49.590;11.026;2022-09-09T06:38:59;14.80;99.90
29281;DHT22;25048;49.590;11.026;2022-09-09T06:41:28;14.80;99.90
29281;DHT22;25048;49.590;11.026;2022-09-09T06:43:56;14.90;99.90
29281;DHT22;25048;49.590;11.026;2022-09-09T06:46:26;15.00;99.90
29281;DHT22;25048;49.590;11.026;2022-09-09T06:48:56;15.00;99.90
29281;DHT22;25048;49.590;11.026;2022-09-09T06:51:36;15.10;99.90
29281;DHT22;25048;49.590;11.026;2022-09-09T06:54:05;15.20;99.90
29281;DHT22;25048;49.590;11.026;2022-09-09T06:56:37;15.40;99.90
29281;DHT22;25048;49.590;11.026;2022-09-09T06:59:07;15.60;99.90
29281;DHT22;25048;49.590;11.026;2022-09-09T07:01:38;15.80;99.90
29281;DHT22;25048;49.590;11.026;2022-09-09T07:04:07;16.00;99.90
29281;DHT22;25048;49.590;11.026;2022-09-09T07:06:39;16.20;99.90
29281;DHT22;25048;49.590;11.026;2022-09-09T07:09:11;16.30;99.90
29281;DHT22;25048;49.590;11.026;2022-09-09T07:11:41;16.40;99.90
29281;DHT22;25048;49.590;11.026;2022-09-09T07:14:09;16.50;99.90
29281;DHT22;25048;49.590;11.026;2022-09-09T07:16:44;16.50;99.90
29281;DHT22;25048;49.590;11.026;2022-09-09T07:19:13;16.40;99.90
29281;DHT22;25048;49.590;11.026;2022-09-09T07:21:41;16.50;99.90
29281;DHT22;25048;49.590;11.026;2022-09-09T07:24:09;16.60;99.90
29281;DHT22;25048;49.590;11.026;2022-09-09T07:26:38;16.70;99.90
29281;DHT22;25048;49.590;11.026;2022-09-09T07:29:07;16.80;99.90
29281;DHT22;25048;49.590;11.026;2022-09-09T07:31:37;16.90;99.90
29281;DHT22;25048;49.590;11.026;2022-09-09T07:34:06;17.00;99.90
29281;DHT22;25048;49.590;11.026;2022-09-09T07:36:36;17.20;99.90
29281;DHT22;25048;49.590;11.026;2022-09-09T07:39:10;17.30;99.90
29281;DHT22;25048;49.590;11.026;2022-09-09T07:41:42;17.50;99.90
29281;DHT22;25048;49.590;11.026;2022-09-09T07:44:08;17.60;99.90
29281;DHT22;25048;49.590;11.026;2022-09-09T07:46:37;17.80;99.90
29281;DHT22;25048;49.590;11.026;2022-09-09T07:49:08;18.00;99.90
29281;DHT22;25048;49.590;11.026;2022-09-09T07:51:39;18.20;99.90
29281;DHT22;25048;49.590;11.026;2022-09-09T07:54:09;18.40;99.90
29281;DHT22;25048;49.590;11.026;2022-09-09T07:56:38;18.70;99.90
29281;DHT22;25048;49.590;11.026;2022-09-09T07:59:06;19.10;99.90
29281;DHT22;25048;49.590;11.026;2022-09-09T08:01:40;19.30;99.90
29281;DHT22;25048;49.590;11.026;2022-09-09T08:04:10;19.40;99.90
29281;DHT22;25048;49.590;11.026;2022-09-09T08:06:41;19.30;99.90
29281;DHT22;25048;49.590;11.026;2022-09-09T08:09:10;19.20;99.90
29281;DHT22;25048;49.590;11.026;2022-09-09T08:11:38;19.00;99.90
29281;DHT22;25048;49.590;11.026;2022-09-09T08:14:07;18.90;99.90
29281;DHT22;25048;49.590;11.026;2022-09-09T08:16:38;18.80;99.90
29281;DHT22;25048;49.590;11.026;2022-09-09T08:19:06;19.00;99.90
29281;DHT22;25048;49.590;11.026;2022-09-09T08:21:35;19.10;99.90
29281;DHT22;25048;49.590;11.026;2022-09-09T08:24:06;19.10;99.90
29281;DHT22;25048;49.590;11.026;2022-09-09T08:26:37;19.20;99.90
29281;DHT22;25048;49.590;11.026;2022-09-09T08:29:06;19.40;99.90
29281;DHT22;25048;49.590;11.026;2022-09-09T08:34:06;19.70;99.90
29281;DHT22;25048;49.590;11.026;2022-09-09T08:36:44;19.80;99.90
29281;DHT22;25048;49.590;11.026;2022-09-09T08:39:10;19.90;99.90
29281;DHT22;25048;49.590;11.026;2022-09-09T08:50:24;20.50;99.90
29281;DHT22;25048;49.590;11.026;2022-09-09T08:56:06;20.90;99.90
29281;DHT22;25048;49.590;11.026;2022-09-09T08:58:29;21.10;99.90
29281;DHT22;25048;49.590;11.026;2022-09-09T09:03:48;21.50;99.90
29281;DHT22;25048;49.590;11.026;2022-09-09T09:09:09;21.90;99.90
29281;DHT22;25048;49.590;11.026;2022-09-09T09:11:48;22.10;99.90
29281;DHT22;25048;49.590;11.026;2022-09-09T09:14:23;22.30;99.90
29281;DHT22;25048;49.590;11.026;2022-09-09T09:17:05;22.40;99.90
29281;DHT22;25048;49.590;11.026;2022-09-09T09:19:35;22.60;99.90
29281;DHT22;25048;49.590;11.026;2022-09-09T09:22:23;22.80;99.90
29281;DHT22;25048;49.590;11.026;2022-09-09T09:24:55;22.90;99.90
29281;DHT22;25048;49.590;11.026;2022-09-09T09:27:36;23.00;99.90
29281;DHT22;25048;49.590;11.026;2022-09-09T09:30:17;23.30;99.90
29281;DHT22;25048;49.590;11.026;2022-09-09T09:32:57;23.70;99.90
29281;DHT22;25048;49.590;11.026;2022-09-09T09:35:15;23.90;99.90
29281;DHT22;25048;49.590;11.026;2022-09-09T09:37:43;24.20;99.90
29281;DHT22;25048;49.590;11.026;2022-09-09T09:40:14;24.40;99.90
29281;DHT22;25048;49.590;11.026;2022-09-09T09:42:49;24.20;99.90
29281;DHT22;25048;49.590;11.026;2022-09-09T09:45:26;23.90;99.90
29281;DHT22;25048;49.590;11.026;2022-09-09T09:48:04;23.80;99.90
29281;DHT22;25048;49.590;11.026;2022-09-09T09:50:33;23.80;99.90
29281;DHT22;25048;49.590;11.026;2022-09-09T09:53:03;23.90;99.90
29281;DHT22;25048;49.590;11.026;2022-09-09T09:55:33;23.80;99.90
29281;DHT22;25048;49.590;11.026;2022-09-09T09:58:05;23.90;99.90
29281;DHT22;25048;49.590;11.026;2022-09-09T10:00:33;24.10;99.90
29281;DHT22;25048;49.590;11.026;2022-09-09T10:03:13;24.10;99.90
29281;DHT22;25048;49.590;11.026;2022-09-09T10:05:36;23.90;99.90
29281;DHT22;25048;49.590;11.026;2022-09-09T10:08:12;23.80;99.90
29281;DHT22;25048;49.590;11.026;2022-09-09T10:10:49;23.80;99.90
29281;DHT22;25048;49.590;11.026;2022-09-09T10:13:38;23.90;99.90
29281;DHT22;25048;49.590;11.026;2022-09-09T10:16:22;24.10;99.90
29281;DHT22;25048;49.590;11.026;2022-09-09T10:19:03;24.30;99.90
29281;DHT22;25048;49.590;11.026;2022-09-09T10:24:58;24.10;99.90
29281;DHT22;25048;49.590;11.026;2022-09-09T10:32:56;24.50;99.90
29281;DHT22;25048;49.590;11.026;2022-09-09T10:35:33;24.80;99.60
29281;DHT22;25048;49.590;11.026;2022-09-09T10:38:12;25.00;99.90
29281;DHT22;25048;49.590;11.026;2022-09-09T10:46:40;25.20;98.20
29281;DHT22;25048;49.590;11.026;2022-09-09T10:52:01;25.40;96.70
29281;DHT22;25048;49.590;11.026;2022-09-09T10:54:31;25.10;97.40
29281;DHT22;25048;49.590;11.026;2022-09-09T10:57:04;24.70;98.80
29281;DHT22;25048;49.590;11.026;2022-09-09T10:59:38;24.40;98.80
29281;DHT22;25048;49.590;11.026;2022-09-09T11:04:44;23.90;99.00
29281;DHT22;25048;49.590;11.026;2022-09-09T11:07:14;23.60;99.00
29281;DHT22;25048;49.590;11.026;2022-09-09T11:09:47;23.40;99.40
29281;DHT22;25048;49.590;11.026;2022-09-09T11:12:15;23.30;98.70
29281;DHT22;25048;49.590;11.026;2022-09-09T11:15:04;23.30;99.80
29281;DHT22;25048;49.590;11.026;2022-09-09T11:17:38;23.60;98.90
29281;DHT22;25048;49.590;11.026;2022-09-09T11:20:06;24.10;98.90
29281;DHT22;25048;49.590;11.026;2022-09-09T11:22:37;24.50;97.90
29281;DHT22;25048;49.590;11.026;2022-09-09T11:25:15;24.90;97.30
29281;DHT22;25048;49.590;11.026;2022-09-09T11:33:49;25.90;97.20
29281;DHT22;25048;49.590;11.026;2022-09-09T11:36:26;25.90;94.40
29281;DHT22;25048;49.590;11.026;2022-09-09T11:38:54;25.50;93.40
29281;DHT22;25048;49.590;11.026;2022-09-09T11:41:23;25.60;92.50
29281;DHT22;25048;49.590;11.026;2022-09-09T11:43:52;25.80;92.60
29281;DHT22;25048;49.590;11.026;2022-09-09T11:46:22;26.10;92.80
29281;DHT22;25048;49.590;11.026;2022-09-09T11:49:02;26.20;89.20
29281;DHT22;25048;49.590;11.026;2022-09-09T11:51:32;26.40;90.40
29281;DHT22;25048;49.590;11.026;2022-09-09T11:54:02;26.60;88.40
29281;DHT22;25048;49.590;11.026;2022-09-09T11:56:44;26.50;86.80
29281;DHT22;25048;49.590;11.026;2022-09-09T11:59:27;26.30;88.30
29281;DHT22;25048;49.590;11.026;2022-09-09T12:01:57;26.00;90.20
29281;DHT22;25048;49.590;11.026;2022-09-09T12:09:58;25.40;91.20
29281;DHT22;25048;49.590;11.026;2022-09-09T12:12:30;25.80;90.30
29281;DHT22;25048;49.590;11.026;2022-09-09T12:17:52;26.40;85.00
29281;DHT22;25048;49.590;11.026;2022-09-09T12:20:26;26.40;89.10
29281;DHT22;25048;49.590;11.026;2022-09-09T12:23:01;26.40;86.30
29281;DHT22;25048;49.590;11.026;2022-09-09T12:25:52;26.30;86.80
29281;DHT22;25048;49.590;11.026;2022-09-09T12:34:13;26.90;81.90
29281;DHT22;25048;49.590;11.026;2022-09-09T12:36:38;27.20;80.90
29281;DHT22;25048;49.590;11.026;2022-09-09T12:39:19;27.50;80.70
29281;DHT22;25048;49.590;11.026;2022-09-09T12:41:52;27.80;77.10
29281;DHT22;25048;49.590;11.026;2022-09-09T12:44:21;27.50;76.70
29281;DHT22;25048;49.590;11.026;2022-09-09T12:46:49;26.90;77.60
29281;DHT22;25048;49.590;11.026;2022-09-09T12:49:31;26.40;79.40
29281;DHT22;25048;49.590;11.026;2022-09-09T12:52:22;25.60;82.60
29281;DHT22;25048;49.590;11.026;2022-09-09T12:54:46;24.70;85.40
29281;DHT22;25048;49.590;11.026;2022-09-09T12:57:15;23.90;89.30
29281;DHT22;25048;49.590;11.026;2022-09-09T12:59:43;23.20;90.30
29281;DHT22;25048;49.590;11.026;2022-09-09T13:02:21;22.70;93.00
29281;DHT22;25048;49.590;11.026;2022-09-09T13:04:49;22.20;96.40
29281;DHT22;25048;49.590;11.026;2022-09-09T13:07:18;21.60;99.90
29281;DHT22;25048;49.590;11.026;2022-09-09T13:09:47;20.90;99.90
29281;DHT22;25048;49.590;11.026;2022-09-09T13:12:20;20.20;99.90
29281;DHT22;25048;49.590;11.026;2022-09-09T13:14:53;19.50;99.90
29281;DHT22;25048;49.590;11.026;2022-09-09T13:17:24;18.90;99.90
29281;DHT22;25048;49.590;11.026;2022-09-09T13:19:53;18.40;99.90
29281;DHT22;25048;49.590;11.026;2022-09-09T13:22:29;17.90;99.90
29281;DHT22;25048;49.590;11.026;2022-09-09T13:27:50;17.10;99.90
29281;DHT22;25048;49.590;11.026;2022-09-09T13:30:31;17.00;99.90
29281;DHT22;25048;49.590;11.026;2022-09-09T13:33:06;17.00;99.90
29281;DHT22;25048;49.590;11.026;2022-09-09T13:35:45;17.20;99.90
29281;DHT22;25048;49.590;11.026;2022-09-09T13:38:08;17.80;99.90
29281;DHT22;25048;49.590;11.026;2022-09-09T13:40:37;18.30;99.90
29281;DHT22;25048;49.590;11.026;2022-09-09T13:43:04;18.60;99.90
29281;DHT22;25048;49.590;11.026;2022-09-09T13:45:32;18.70;99.90
29281;DHT22;25048;49.590;11.026;2022-09-09T13:48:08;18.90;99.90
29281;DHT22;25048;49.590;11.026;2022-09-09T13:50:31;19.00;99.90
29281;DHT22;25048;49.590;11.026;2022-09-09T13:52:59;18.90;99.90
29281;DHT22;25048;49.590;11.026;2022-09-09T13:55:28;18.80;99.90
29281;DHT22;25048;49.590;11.026;2022-09-09T13:58:02;18.60;99.90
29281;DHT22;25048;49.590;11.026;2022-09-09T14:00:31;18.50;99.90
29281;DHT22;25048;49.590;11.026;2022-09-09T14:02:59;18.50;99.90
29281;DHT22;25048;49.590;11.026;2022-09-09T14:05:31;18.60;99.90
29281;DHT22;25048;49.590;11.026;2022-09-09T14:07:59;18.60;99.90
29281;DHT22;25048;49.590;11.026;2022-09-09T14:10:29;18.70;99.90
29281;DHT22;25048;49.590;11.026;2022-09-09T14:12:57;18.80;99.90
29281;DHT22;25048;49.590;11.026;2022-09-09T14:15:25;18.90;99.90
29281;DHT22;25048;49.590;11.026;2022-09-09T14:17:53;19.00;99.90
29281;DHT22;25048;49.590;11.026;2022-09-09T14:20:21;19.10;99.90
29281;DHT22;25048;49.590;11.026;2022-09-09T14:22:48;19.20;99.90
29281;DHT22;25048;49.590;11.026;2022-09-09T14:25:16;19.50;99.90
29281;DHT22;25048;49.590;11.026;2022-09-09T14:27:43;19.70;99.90
29281;DHT22;25048;49.590;11.026;2022-09-09T14:30:12;19.80;99.90
29281;DHT22;25048;49.590;11.026;2022-09-09T14:32:39;19.90;99.90
29281;DHT22;25048;49.590;11.026;2022-09-09T14:35:07;19.90;99.90
29281;DHT22;25048;49.590;11.026;2022-09-09T14:37:35;20.10;99.90
29281;DHT22;25048;49.590;11.026;2022-09-09T14:40:03;20.30;99.90
29281;DHT22;25048;49.590;11.026;2022-09-09T14:42:30;20.30;99.90
29281;DHT22;25048;49.590;11.026;2022-09-09T14:44:58;20.30;99.90
29281;DHT22;25048;49.590;11.026;2022-09-09T14:47:25;20.10;99.90
29281;DHT22;25048;49.590;11.026;2022-09-09T14:49:53;20.00;99.90
29281;DHT22;25048;49.590;11.026;2022-09-09T14:52:20;19.80;99.90
29281;DHT22;25048;49.590;11.026;2022-09-09T14:54:48;19.70;99.90
29281;DHT22;25048;49.590;11.026;2022-09-09T14:57:15;19.60;99.90
29281;DHT22;25048;49.590;11.026;2022-09-09T14:59:43;19.60;99.90
29281;DHT22;25048;49.590;11.026;2022-09-09T15:02:11;19.50;99.90
29281;DHT22;25048;49.590;11.026;2022-09-09T15:04:39;19.40;99.90
29281;DHT22;25048;49.590;11.026;2022-09-09T15:07:07;19.30;99.90
29281;DHT22;25048;49.590;11.026;2022-09-09T15:09:34;19.20;99.90
29281;DHT22;25048;49.590;11.026;2022-09-09T15:12:03;19.10;99.90
29281;DHT22;25048;49.590;11.026;2022-09-09T15:14:31;19.00;99.90
29281;DHT22;25048;49.590;11.026;2022-09-09T15:16:59;18.90;99.90
29281;DHT22;25048;49.590;11.026;2022-09-09T15:19:27;18.90;99.90
29281;DHT22;25048;49.590;11.026;2022-09-09T15:21:54;18.90;99.90
29281;DHT22;25048;49.590;11.026;2022-09-09T15:24:22;18.90;99.90
29281;DHT22;25048;49.590;11.026;2022-09-09T15:26:49;19.00;99.90
29281;DHT22;25048;49.590;11.026;2022-09-09T15:29:17;19.10;99.90
29281;DHT22;25048;49.590;11.026;2022-09-09T15:31:45;19.20;99.90
29281;DHT22;25048;49.590;11.026;2022-09-09T15:34:14;19.20;99.90
29281;DHT22;25048;49.590;11.026;2022-09-09T15:36:43;19.20;99.90
29281;DHT22;25048;49.590;11.026;2022-09-09T15:39:14;19.20;99.90
29281;DHT22;25048;49.590;11.026;2022-09-09T15:41:47;19.10;99.90
29281;DHT22;25048;49.590;11.026;2022-09-09T15:44:16;19.10;99.90
29281;DHT22;25048;49.590;11.026;2022-09-09T15:46:52;19.10;99.90
29281;DHT22;25048;49.590;11.026;2022-09-09T15:49:23;19.10;99.90
29281;DHT22;25048;49.590;11.026;2022-09-09T15:51:55;19.10;99.90
29281;DHT22;25048;49.590;11.026;2022-09-09T15:54:24;19.20;99.90
29281;DHT22;25048;49.590;11.026;2022-09-09T15:56:55;19.40;99.90
29281;DHT22;25048;49.590;11.026;2022-09-09T15:59:23;19.60;99.90
29281;DHT22;25048;49.590;11.026;2022-09-09T16:01:51;19.80;99.90
29281;DHT22;25048;49.590;11.026;2022-09-09T16:04:19;20.00;99.90
29281;DHT22;25048;49.590;11.026;2022-09-09T16:06:54;20.10;99.90
29281;DHT22;25048;49.590;11.026;2022-09-09T16:09:21;20.20;99.90
29281;DHT22;25048;49.590;11.026;2022-09-09T16:11:49;20.30;99.90
29281;DHT22;25048;49.590;11.026;2022-09-09T16:14:18;20.20;99.90
29281;DHT22;25048;49.590;11.026;2022-09-09T16:16:46;20.20;99.90
29281;DHT22;25048;49.590;11.026;2022-09-09T16:19:13;20.10;99.90
29281;DHT22;25048;49.590;11.026;2022-09-09T16:21:43;20.00;99.90
29281;DHT22;25048;49.590;11.026;2022-09-09T16:24:13;20.00;99.90
29281;DHT22;25048;49.590;11.026;2022-09-09T16:26:43;19.90;99.90
29281;DHT22;25048;49.590;11.026;2022-09-09T16:29:13;19.80;99.90
29281;DHT22;25048;49.590;11.026;2022-09-09T16:31:41;19.70;99.90
29281;DHT22;25048;49.590;11.026;2022-09-09T16:34:09;19.60;99.90
29281;DHT22;25048;49.590;11.026;2022-09-09T16:36:38;19.60;99.90
29281;DHT22;25048;49.590;11.026;2022-09-09T16:39:10;19.50;99.90
29281;DHT22;25048;49.590;11.026;2022-09-09T16:41:38;19.40;99.90
29281;DHT22;25048;49.590;11.026;2022-09-09T16:44:08;19.30;99.90
29281;DHT22;25048;49.590;11.026;2022-09-09T16:46:38;19.20;99.90
29281;DHT22;25048;49.590;11.026;2022-09-09T16:49:09;19.10;99.90
29281;DHT22;25048;49.590;11.026;2022-09-09T16:51:46;19.00;99.90
29281;DHT22;25048;49.590;11.026;2022-09-09T16:54:10;18.80;99.90
29281;DHT22;25048;49.590;11.026;2022-09-09T16:56:41;18.70;99.90
29281;DHT22;25048;49.590;11.026;2022-09-09T16:59:11;18.60;99.90
29281;DHT22;25048;49.590;11.026;2022-09-09T17:01:40;18.50;99.90
29281;DHT22;25048;49.590;11.026;2022-09-09T17:04:15;18.40;99.90
29281;DHT22;25048;49.590;11.026;2022-09-09T17:06:41;18.30;99.90
29281;DHT22;25048;49.590;11.026;2022-09-09T17:09:11;18.20;99.90
29281;DHT22;25048;49.590;11.026;2022-09-09T17:11:40;18.20;99.90
29281;DHT22;25048;49.590;11.026;2022-09-09T17:14:10;18.00;99.90
29281;DHT22;25048;49.590;11.026;2022-09-09T17:16:37;17.90;99.90
29281;DHT22;25048;49.590;11.026;2022-09-09T17:19:06;17.80;99.90
29281;DHT22;25048;49.590;11.026;2022-09-09T17:21:36;17.80;99.90